Flight Track Log - Related Links

Times and Time Zones

All times are in EDT time to prevent confusion due to time zone crossing. See the GLA91R flight status page for this flight to view local times or setup timezone preferences in your user account.

Time Position Orientation Groundspeed Altitude Reporting Facility
EDT Latitude Longitude Course Direction KTS MPH feet Rate Location/Type
Wed 08:00:32 AM 43.9336 -107.9792 202° Southwest 154 177 6,300  Level Salt Lake Center
Wed 08:01:32 AM 43.9514 -107.9508 49° Northeast 181 208 9,000 2,350 Climbing Salt Lake Center
Wed 08:02:00 AM 43.6435 -108.1334 202° Southwest  Level Estimated
Wed 08:02:32 AM 43.9042 -107.9689 195° South 194 223 11,000  Level Salt Lake Center
Wed 08:03:00 AM 43.5889 -108.1588 199° South  Level FlightAware Approximate
Wed 08:03:33 AM 43.8569 -108.0014 206° Southwest 198 228 13,200  Level Salt Lake Center
Wed 08:04:00 AM 43.5343 -108.1841 199° South  Level FlightAware Approximate
Wed 08:04:33 AM 43.8047 -108.0344 205° Southwest 204 235 13,900  Level Salt Lake Center
Wed 08:05:00 AM 43.4813 -108.2154 202° Southwest  Level Estimated
Wed 08:05:33 AM 43.7333 -108.0758 203° Southwest 232 267 13,900  Level Salt Lake Center
Wed 08:06:34 AM 43.6706 -108.1092 201° Southwest 245 282 13,900  Level Salt Lake Center
Wed 08:07:34 AM 43.6058 -108.1422 200° South 252 290 13,900  Level Salt Lake Center
Wed 08:08:34 AM 43.5247 -108.1900 203° Southwest 271 312 13,900  Level Salt Lake Center
Wed 08:09:35 AM 43.4528 -108.2283 201° Southwest 286 329 13,900 -198 Level Salt Lake Center
Wed 08:10:35 AM 43.3831 -108.2703 204° Southwest 286 329 13,500 -850 Descending Salt Lake Center
Wed 08:11:35 AM 43.3164 -108.3106 204° Southwest 277 319 12,200 -793 Descending Salt Lake Center
Wed 08:12:36 AM 43.2492 -108.3500 203° Southwest 238 274 11,900 -893 Descending Salt Lake Center
Wed 08:13:36 AM 43.1947 -108.3875 207° Southwest 227 261 10,400 -1,900 Descending Salt Lake Center
Wed 08:14:36 AM 43.1447 -108.4533 224° Southwest 240 276 8,100 -1,339 Descending Salt Lake Center
Wed 08:15:37 AM 43.0992 -108.5119 223° Southwest 240 276 7,700 -393 Descending Salt Lake Center

Login

Don't have an account? Register now (free) for customized features, flight alerts, and more!